Time;durP1;ratioP1;P1;durP2;ratioP2;P2;SDS_P1;SDS_P2;PMS_P1;PMS_P2;Temp;Humidity;BMP_temperature;BMP_pressure;BME280_temperature;BME280_humidity;BME280_pressure;Samples;Min_cycle;Max_cycle;Signal;HPM_P1;HPM_P2
2022/12/02 00:02:31;;;;;;;39.75;19.15;;;;;;;;;;5085687;28;20423;-95
2022/12/02 00:05:01;;;;;;;39.60;18.08;;;;;;;;;;5075873;28;20059;-96
2022/12/02 00:07:28;;;;;;;32.83;17.13;;;;;;;;;;5093794;28;20058;-95
2022/12/02 00:09:56;;;;;;;33.75;17.27;;;;;;;;;;5093949;28;20121;-95
2022/12/02 00:12:24;;;;;;;34.17;16.92;;;;;;;;;;5094148;28;20534;-95
2022/12/02 00:15:00;;;;;;;34.15;16.75;;;;;;;;;;5097683;28;20518;-94
2022/12/02 00:17:27;;;;;;;31.05;17.08;;;;;;;;;;5099838;28;20048;-94
2022/12/02 00:19:54;;;;;;;32.72;17.38;;;;;;;;;;5095915;28;20144;-94
2022/12/02 00:22:22;;;;;;;34.72;17.90;;;;;;;;;;5095316;28;20052;-95
2022/12/02 00:24:49;;;;;;;28.25;16.10;;;;;;;;;;5099436;28;20052;-94
2022/12/02 00:27:17;;;;;;;30.00;16.00;;;;;;;;;;5099968;28;20059;-95
2022/12/02 00:29:44;;;;;;;31.30;16.13;;;;;;;;;;5097196;28;20058;-95
2022/12/02 00:32:13;;;;;;;29.77;15.68;;;;;;;;;;5101373;28;20098;-95
2022/12/02 00:34:41;;;;;;;25.88;14.57;;;;;;;;;;5101047;28;20488;-95
2022/12/02 00:37:09;;;;;;;26.13;14.75;;;;;;;;;;5099990;28;20044;-95
2022/12/02 00:39:36;;;;;;;28.25;15.30;;;;;;;;;;5100946;28;20055;-95
2022/12/02 00:42:03;;;;;;;25.27;13.65;;;;;;;;;;5095783;28;20059;-95
2022/12/02 00:47:17;;;;;;;29.33;14.98;;;;;;;;;;5094472;28;20120;-94
2022/12/02 00:49:44;;;;;;;24.95;13.20;;;;;;;;;;5093611;28;20376;-94
2022/12/02 00:52:11;;;;;;;26.33;14.48;;;;;;;;;;5093438;28;20070;-94
2022/12/02 00:54:38;;;;;;;23.73;14.10;;;;;;;;;;5092637;28;20045;-93
2022/12/02 00:57:05;;;;;;;23.00;13.55;;;;;;;;;;5093020;28;20048;-92
2022/12/02 00:59:33;;;;;;;26.65;14.55;;;;;;;;;;5092940;28;20055;-93
2022/12/02 01:02:00;;;;;;;25.92;13.70;;;;;;;;;;5092869;28;20051;-91
2022/12/02 01:04:27;;;;;;;25.48;14.07;;;;;;;;;;5094177;28;20048;-92
2022/12/02 01:06:57;;;;;;;23.75;13.75;;;;;;;;;;5094842;28;20044;-92
2022/12/02 01:09:24;;;;;;;25.60;13.52;;;;;;;;;;5096620;28;20048;-92
2022/12/02 01:11:51;;;;;;;27.48;14.25;;;;;;;;;;5096940;28;20058;-92
2022/12/02 01:14:19;;;;;;;21.58;12.60;;;;;;;;;;5113844;28;20031;-92
2022/12/02 01:16:46;;;;;;;25.70;13.93;;;;;;;;;;5097777;28;20055;-91
2022/12/02 01:19:14;;;;;;;22.73;12.57;;;;;;;;;;5096484;28;20060;-90
2022/12/02 01:21:41;;;;;;;23.73;13.68;;;;;;;;;;5096240;28;20051;-90
2022/12/02 01:24:08;;;;;;;23.48;13.05;;;;;;;;;;5096139;28;20051;-90
2022/12/02 01:26:35;;;;;;;23.88;13.75;;;;;;;;;;5096282;28;20044;-89
2022/12/02 01:29:03;;;;;;;20.92;13.52;;;;;;;;;;5096359;28;20052;-90
2022/12/02 01:31:30;;;;;;;22.70;13.57;;;;;;;;;;5096261;28;20040;-89
2022/12/02 01:33:57;;;;;;;22.45;13.35;;;;;;;;;;5095934;28;20492;-89
2022/12/02 01:36:24;;;;;;;24.17;13.60;;;;;;;;;;5095708;28;20050;-88
2022/12/02 01:38:52;;;;;;;25.33;14.40;;;;;;;;;;5097195;28;20473;-89
2022/12/02 01:41:19;;;;;;;28.08;15.65;;;;;;;;;;5095879;28;20048;-87
2022/12/02 01:43:46;;;;;;;25.83;14.20;;;;;;;;;;5095554;28;20048;-88
2022/12/02 01:46:13;;;;;;;21.98;13.68;;;;;;;;;;5095424;28;20504;-88
2022/12/02 01:48:41;;;;;;;26.02;14.63;;;;;;;;;;5095635;28;20044;-88
2022/12/02 01:51:08;;;;;;;22.55;13.85;;;;;;;;;;5095536;28;20122;-88
2022/12/02 01:53:35;;;;;;;23.80;13.90;;;;;;;;;;5095393;28;20044;-88
2022/12/02 01:56:03;;;;;;;24.83;14.32;;;;;;;;;;5095335;28;20123;-88
2022/12/02 01:58:30;;;;;;;24.27;13.77;;;;;;;;;;5095651;28;20051;-88
2022/12/02 02:00:57;;;;;;;23.73;13.32;;;;;;;;;;5096298;28;20059;-88
2022/12/02 02:03:25;;;;;;;23.35;14.15;;;;;;;;;;5096342;28;20056;-88
2022/12/02 02:05:52;;;;;;;20.90;13.48;;;;;;;;;;5095729;28;20330;-88
2022/12/02 02:08:21;;;;;;;21.17;13.35;;;;;;;;;;5095203;28;20052;-88
2022/12/02 02:10:48;;;;;;;22.55;13.20;;;;;;;;;;5095116;28;20044;-88
2022/12/02 02:13:16;;;;;;;23.00;13.13;;;;;;;;;;5095142;28;20511;-88
2022/12/02 02:15:44;;;;;;;21.23;13.43;;;;;;;;;;5095005;28;20059;-88
2022/12/02 02:18:12;;;;;;;25.80;14.63;;;;;;;;;;5094876;28;20379;-88
2022/12/02 02:20:40;;;;;;;22.08;13.95;;;;;;;;;;5094876;28;20052;-87
2022/12/02 02:23:07;;;;;;;20.10;13.05;;;;;;;;;;5094898;28;20048;-88
2022/12/02 02:25:45;;;;;;;23.67;15.07;;;;;;;;;;5095529;28;20500;-88
2022/12/02 02:28:12;;;;;;;25.33;14.88;;;;;;;;;;5113534;28;20036;-88
2022/12/02 02:30:39;;;;;;;23.70;15.13;;;;;;;;;;5095388;28;20052;-87
2022/12/02 02:33:08;;;;;;;24.27;14.77;;;;;;;;;;5094825;28;20048;-88
2022/12/02 02:35:37;;;;;;;27.42;16.15;;;;;;;;;;5095508;28;20054;-87
2022/12/02 02:38:06;;;;;;;27.92;15.68;;;;;;;;;;5094660;28;20048;-88
2022/12/02 02:40:33;;;;;;;28.27;16.13;;;;;;;;;;5095019;28;20059;-88
2022/12/02 02:43:01;;;;;;;30.60;17.48;;;;;;;;;;5095013;28;20055;-88
2022/12/02 02:45:32;;;;;;;31.60;17.90;;;;;;;;;;5095684;28;20071;-88
2022/12/02 02:48:00;;;;;;;31.00;17.40;;;;;;;;;;5108967;28;20130;-88
2022/12/02 02:50:27;;;;;;;28.95;16.67;;;;;;;;;;5107371;28;20081;-88
2022/12/02 02:52:55;;;;;;;28.10;16.15;;;;;;;;;;5094504;28;20484;-88
2022/12/02 02:55:23;;;;;;;32.35;16.63;;;;;;;;;;5094248;28;20059;-88
2022/12/02 02:57:51;;;;;;;27.63;15.95;;;;;;;;;;5094301;28;20052;-88
2022/12/02 03:00:19;;;;;;;28.40;16.60;;;;;;;;;;5094196;28;20047;-88
2022/12/02 03:02:48;;;;;;;26.48;15.63;;;;;;;;;;5094569;28;20059;-88
2022/12/02 03:05:15;;;;;;;27.58;16.63;;;;;;;;;;5094544;28;20109;-89
2022/12/02 03:07:43;;;;;;;28.63;16.55;;;;;;;;;;5094176;28;20064;-88
2022/12/02 03:10:10;;;;;;;29.80;16.88;;;;;;;;;;5094300;28;20077;-88
2022/12/02 03:12:38;;;;;;;29.13;17.50;;;;;;;;;;5094334;28;20044;-88
2022/12/02 03:15:05;;;;;;;32.38;17.70;;;;;;;;;;5093857;28;20059;-89
2022/12/02 03:17:33;;;;;;;28.58;17.40;;;;;;;;;;5094065;28;20055;-89
2022/12/02 03:20:00;;;;;;;27.63;16.73;;;;;;;;;;5093916;28;20050;-89
2022/12/02 03:22:27;;;;;;;27.02;16.02;;;;;;;;;;5093823;28;20048;-89
2022/12/02 03:24:55;;;;;;;28.42;16.35;;;;;;;;;;5093903;28;20500;-90
2022/12/02 03:27:22;;;;;;;24.10;15.18;;;;;;;;;;5094912;28;20048;-88
2022/12/02 03:29:50;;;;;;;24.27;14.85;;;;;;;;;;5093320;28;20052;-89
2022/12/02 03:32:18;;;;;;;23.33;15.00;;;;;;;;;;5094039;28;20055;-90
2022/12/02 03:34:45;;;;;;;22.80;14.25;;;;;;;;;;5093814;28;20514;-90
2022/12/02 03:37:12;;;;;;;25.33;14.85;;;;;;;;;;5093578;28;20044;-90
2022/12/02 03:39:40;;;;;;;25.65;15.40;;;;;;;;;;5094327;28;20510;-90
2022/12/02 03:42:07;;;;;;;24.52;15.32;;;;;;;;;;5110934;28;20032;-90
2022/12/02 03:44:34;;;;;;;21.50;14.23;;;;;;;;;;5095062;28;20048;-89
2022/12/02 03:47:02;;;;;;;23.55;14.55;;;;;;;;;;5092858;28;20056;-90
2022/12/02 03:49:29;;;;;;;22.95;14.00;;;;;;;;;;5093299;28;20048;-90
2022/12/02 03:51:56;;;;;;;27.05;15.48;;;;;;;;;;5093507;28;20047;-90
2022/12/02 03:54:23;;;;;;;24.73;15.13;;;;;;;;;;5093168;28;20538;-90
2022/12/02 03:56:51;;;;;;;25.75;15.70;;;;;;;;;;5093555;28;20044;-90
2022/12/02 03:59:20;;;;;;;25.88;16.20;;;;;;;;;;5093381;28;20055;-90
2022/12/02 04:01:47;;;;;;;24.92;15.52;;;;;;;;;;5093747;28;20059;-90
2022/12/02 04:04:15;;;;;;;25.23;14.55;;;;;;;;;;5093199;28;20060;-90
2022/12/02 04:06:42;;;;;;;25.25;14.65;;;;;;;;;;5093331;28;20063;-90
2022/12/02 04:09:09;;;;;;;23.73;14.68;;;;;;;;;;5093328;28;20063;-90
2022/12/02 04:11:37;;;;;;;27.02;15.60;;;;;;;;;;5093282;28;20044;-89
2022/12/02 04:14:04;;;;;;;25.90;15.77;;;;;;;;;;5093171;28;20040;-90
2022/12/02 04:16:31;;;;;;;29.45;16.55;;;;;;;;;;5093281;28;20059;-90
2022/12/02 04:18:58;;;;;;;29.42;17.17;;;;;;;;;;5093090;28;20052;-90
2022/12/02 04:21:25;;;;;;;25.85;15.82;;;;;;;;;;5093202;28;20431;-88
2022/12/02 04:23:53;;;;;;;27.55;16.75;;;;;;;;;;5093046;28;20131;-90
2022/12/02 04:26:20;;;;;;;29.70;16.98;;;;;;;;;;5092619;28;20059;-90
2022/12/02 04:28:47;;;;;;;30.63;17.65;;;;;;;;;;5092745;28;20055;-89
2022/12/02 04:31:15;;;;;;;28.15;16.00;;;;;;;;;;5092618;28;20491;-90
2022/12/02 04:33:42;;;;;;;28.95;16.13;;;;;;;;;;5092822;28;20048;-89
2022/12/02 04:36:09;;;;;;;24.50;15.18;;;;;;;;;;5092822;28;20512;-89
2022/12/02 04:38:36;;;;;;;31.83;16.88;;;;;;;;;;5092767;28;20408;-89
2022/12/02 04:41:03;;;;;;;27.08;15.38;;;;;;;;;;5091736;28;20416;-90
2022/12/02 04:43:31;;;;;;;26.33;15.55;;;;;;;;;;5092658;28;20048;-89
2022/12/02 04:46:01;;;;;;;24.65;15.18;;;;;;;;;;5092403;28;20064;-89
2022/12/02 04:48:28;;;;;;;25.17;15.60;;;;;;;;;;5092560;28;20052;-89
2022/12/02 04:50:55;;;;;;;29.00;17.83;;;;;;;;;;5092733;28;20542;-89
2022/12/02 04:53:23;;;;;;;28.08;15.85;;;;;;;;;;5093271;28;20540;-88
2022/12/02 04:55:50;;;;;;;27.10;16.30;;;;;;;;;;5098802;28;20048;-88
2022/12/02 04:58:17;;;;;;;28.63;17.08;;;;;;;;;;5093182;28;20059;-89
2022/12/02 05:00:44;;;;;;;29.30;17.10;;;;;;;;;;5092396;28;20050;-89
2022/12/02 05:03:11;;;;;;;31.35;17.52;;;;;;;;;;5092704;28;20135;-88
2022/12/02 05:05:39;;;;;;;30.08;17.48;;;;;;;;;;5092135;28;20048;-89
2022/12/02 05:08:06;;;;;;;29.52;17.15;;;;;;;;;;5093079;28;20040;-88
2022/12/02 05:10:33;;;;;;;30.02;17.83;;;;;;;;;;5093281;28;20052;-88
2022/12/02 05:13:01;;;;;;;28.95;17.00;;;;;;;;;;5092143;28;20070;-88
2022/12/02 05:15:28;;;;;;;30.25;17.33;;;;;;;;;;5092201;28;20059;-88
2022/12/02 05:17:55;;;;;;;33.55;17.45;;;;;;;;;;5092238;28;20428;-88
2022/12/02 05:20:22;;;;;;;28.13;16.42;;;;;;;;;;5092350;28;20058;-88
2022/12/02 05:22:50;;;;;;;32.40;18.15;;;;;;;;;;5092272;28;20123;-87
2022/12/02 05:25:17;;;;;;;32.88;18.35;;;;;;;;;;5091883;28;20040;-87
2022/12/02 05:27:44;;;;;;;32.35;18.10;;;;;;;;;;5091983;28;20432;-87
2022/12/02 05:30:12;;;;;;;37.05;17.98;;;;;;;;;;5091774;28;20048;-87
2022/12/02 05:32:39;;;;;;;30.75;17.67;;;;;;;;;;5091947;28;20083;-87
2022/12/02 05:35:06;;;;;;;30.50;16.33;;;;;;;;;;5092493;28;20067;-87
2022/12/02 05:37:34;;;;;;;34.90;18.92;;;;;;;;;;5091765;28;20048;-87
2022/12/02 05:40:01;;;;;;;32.55;17.77;;;;;;;;;;5091747;28;20047;-87
2022/12/02 05:42:28;;;;;;;28.60;16.95;;;;;;;;;;5091619;28;20055;-87
2022/12/02 05:44:59;;;;;;;29.55;17.23;;;;;;;;;;5092327;28;20401;-87
2022/12/02 05:47:28;;;;;;;28.90;16.67;;;;;;;;;;5091539;28;20063;-87
2022/12/02 05:49:56;;;;;;;31.40;17.88;;;;;;;;;;5092818;28;20052;-86
2022/12/02 05:52:24;;;;;;;29.75;16.98;;;;;;;;;;5093959;28;20051;-87
2022/12/02 05:54:53;;;;;;;32.78;17.50;;;;;;;;;;5095131;28;20395;-87
2022/12/02 05:57:22;;;;;;;31.92;18.23;;;;;;;;;;5095426;28;20048;-86
2022/12/02 06:00:09;;;;;;;32.58;17.73;;;;;;;;;;5095183;28;20055;-87
2022/12/02 06:02:38;;;;;;;30.58;17.70;;;;;;;;;;5095037;28;20475;-86
2022/12/02 06:05:15;;;;;;;30.60;18.23;;;;;;;;;;5094831;28;20136;-86
2022/12/02 06:07:43;;;;;;;33.90;18.30;;;;;;;;;;5099380;28;20048;-88
2022/12/02 06:10:15;;;;;;;32.85;18.25;;;;;;;;;;5111860;28;20472;-87
2022/12/02 06:12:43;;;;;;;29.83;17.58;;;;;;;;;;5096826;28;20412;-87
2022/12/02 06:15:13;;;;;;;36.75;18.10;;;;;;;;;;5095115;28;20054;-86
2022/12/02 06:17:41;;;;;;;33.50;18.60;;;;;;;;;;5095135;28;20044;-87
2022/12/02 06:20:14;;;;;;;29.70;16.83;;;;;;;;;;5094715;28;20143;-88
2022/12/02 06:22:41;;;;;;;31.98;17.83;;;;;;;;;;5095051;28;20048;-87
2022/12/02 06:25:22;;;;;;;28.83;16.83;;;;;;;;;;5094669;28;20048;-85
2022/12/02 06:27:49;;;;;;;31.52;16.95;;;;;;;;;;5094643;28;20040;-88
2022/12/02 06:30:16;;;;;;;32.28;16.35;;;;;;;;;;5094563;28;20052;-88
2022/12/02 06:32:46;;;;;;;43.83;22.42;;;;;;;;;;5095794;28;20044;-88
2022/12/02 06:35:27;;;;;;;47.00;25.48;;;;;;;;;;5094791;28;20048;-88
2022/12/02 06:38:15;;;;;;;117.93;62.97;;;;;;;;;;5095486;28;20047;-87
2022/12/02 06:40:42;;;;;;;131.45;73.45;;;;;;;;;;5086541;28;20086;-87
2022/12/02 06:43:15;;;;;;;89.43;45.95;;;;;;;;;;5083040;28;20047;-88
2022/12/02 06:45:45;;;;;;;36.67;20.88;;;;;;;;;;5077675;28;20048;-88
2022/12/02 06:48:30;;;;;;;44.20;24.75;;;;;;;;;;5095280;28;20047;-88
2022/12/02 06:50:59;;;;;;;49.67;28.00;;;;;;;;;;5077475;28;20044;-88
2022/12/02 06:53:39;;;;;;;52.70;27.17;;;;;;;;;;5077743;28;20130;-88
2022/12/02 06:56:27;;;;;;;36.63;21.02;;;;;;;;;;5095354;28;20052;-88
2022/12/02 06:58:57;;;;;;;37.58;20.52;;;;;;;;;;5095153;28;20498;-88
2022/12/02 07:01:27;;;;;;;34.88;19.25;;;;;;;;;;5095180;28;20048;-88
2022/12/02 07:04:03;;;;;;;32.75;18.92;;;;;;;;;;5094350;28;20093;-88
2022/12/02 07:06:31;;;;;;;36.13;20.60;;;;;;;;;;5077316;28;20059;-89
2022/12/02 07:09:00;;;;;;;35.78;20.95;;;;;;;;;;5077282;28;20070;-88
2022/12/02 07:14:24;;;;;;;150.45;89.47;;;;;;;;;;5092877;28;20044;-88
2022/12/02 07:16:53;;;;;;;29.67;17.48;;;;;;;;;;5094275;28;20404;-88
2022/12/02 07:19:26;;;;;;;68.57;30.58;;;;;;;;;;5077214;28;20044;-88
2022/12/02 07:21:53;;;;;;;109.97;43.58;;;;;;;;;;5101026;28;20036;-89
2022/12/02 07:24:21;;;;;;;197.48;75.10;;;;;;;;;;5089399;28;20060;-88
2022/12/02 07:26:49;;;;;;;126.18;50.80;;;;;;;;;;5094684;28;20055;-88
2022/12/02 07:29:24;;;;;;;71.88;33.42;;;;;;;;;;5076957;28;20075;-88
2022/12/02 07:31:51;;;;;;;68.93;32.80;;;;;;;;;;5076976;28;20048;-88
2022/12/02 07:34:18;;;;;;;49.15;23.90;;;;;;;;;;5076953;28;20102;-88
2022/12/02 07:36:48;;;;;;;49.08;25.63;;;;;;;;;;5076832;28;20040;-88
2022/12/02 07:39:15;;;;;;;103.72;44.70;;;;;;;;;;5076554;28;20040;-87
2022/12/02 07:41:42;;;;;;;55.45;26.92;;;;;;;;;;5076934;28;20411;-88
2022/12/02 07:44:10;;;;;;;40.30;21.67;;;;;;;;;;5076697;28;20664;-87
2022/12/02 07:46:37;;;;;;;33.67;19.23;;;;;;;;;;5076234;28;20068;-87
2022/12/02 07:49:04;;;;;;;39.72;27.23;;;;;;;;;;5076508;28;20048;-87
2022/12/02 07:51:31;;;;;;;31.58;19.58;;;;;;;;;;5076408;28;20070;-87
2022/12/02 07:53:59;;;;;;;33.65;20.38;;;;;;;;;;5078418;28;20048;-86
2022/12/02 07:56:26;;;;;;;28.42;17.80;;;;;;;;;;5076517;28;20555;-87
2022/12/02 07:58:53;;;;;;;34.17;18.77;;;;;;;;;;5076477;28;20090;-86
2022/12/02 08:01:39;;;;;;;31.27;17.73;;;;;;;;;;5078871;28;20488;-87
2022/12/02 08:04:07;;;;;;;29.00;17.15;;;;;;;;;;5076100;28;20393;-86
2022/12/02 08:06:34;;;;;;;31.25;18.60;;;;;;;;;;5076215;28;20052;-86
2022/12/02 08:09:06;;;;;;;27.75;17.10;;;;;;;;;;5077145;28;20048;-87
2022/12/02 08:11:33;;;;;;;32.30;17.85;;;;;;;;;;5076196;28;20048;-86
2022/12/02 08:14:01;;;;;;;30.40;17.25;;;;;;;;;;5076109;28;20052;-86
2022/12/02 08:16:28;;;;;;;32.47;18.35;;;;;;;;;;5075776;28;20060;-87
2022/12/02 08:18:55;;;;;;;31.15;19.00;;;;;;;;;;5075977;28;20043;-86
2022/12/02 08:21:23;;;;;;;121.25;42.85;;;;;;;;;;5075791;28;20062;-87
2022/12/02 08:23:50;;;;;;;46.10;22.15;;;;;;;;;;5075901;28;20054;-86
2022/12/02 08:26:17;;;;;;;40.67;20.77;;;;;;;;;;5075999;28;20050;-86
2022/12/02 08:28:44;;;;;;;34.85;19.95;;;;;;;;;;5076127;28;20048;-87
2022/12/02 08:31:18;;;;;;;28.52;16.90;;;;;;;;;;5077577;28;20496;-87
2022/12/02 08:33:45;;;;;;;30.23;16.80;;;;;;;;;;5077153;28;20051;-86
2022/12/02 08:36:14;;;;;;;61.55;28.05;;;;;;;;;;5086179;28;20048;-86
2022/12/02 08:38:41;;;;;;;94.57;40.47;;;;;;;;;;5079205;28;20138;-87
2022/12/02 08:41:09;;;;;;;33.20;19.00;;;;;;;;;;5076432;28;20056;-87
2022/12/02 08:43:40;;;;;;;70.82;34.75;;;;;;;;;;5094716;28;20052;-87
2022/12/02 08:46:07;;;;;;;28.98;18.83;;;;;;;;;;5076296;28;20066;-87
2022/12/02 08:48:35;;;;;;;27.50;17.15;;;;;;;;;;5094567;28;20109;-87
2022/12/02 08:51:02;;;;;;;28.42;17.35;;;;;;;;;;5095136;28;20052;-87
2022/12/02 08:53:29;;;;;;;28.15;16.90;;;;;;;;;;5077479;28;20048;-86
2022/12/02 08:55:56;;;;;;;30.85;18.52;;;;;;;;;;5078302;28;20056;-87
2022/12/02 08:58:23;;;;;;;37.22;21.23;;;;;;;;;;5081861;28;20131;-86
2022/12/02 09:00:51;;;;;;;28.20;16.75;;;;;;;;;;5086554;28;20051;-86
2022/12/02 09:03:18;;;;;;;34.83;18.90;;;;;;;;;;5084953;28;20040;-87
2022/12/02 09:05:45;;;;;;;31.73;19.05;;;;;;;;;;5075571;28;20062;-87
2022/12/02 09:08:13;;;;;;;36.15;20.75;;;;;;;;;;5075837;28;20052;-87
2022/12/02 09:10:40;;;;;;;30.13;17.45;;;;;;;;;;5075795;28;20493;-83
2022/12/02 09:13:07;;;;;;;28.30;16.55;;;;;;;;;;5075153;28;20105;-86
2022/12/02 09:15:35;;;;;;;22.35;14.93;;;;;;;;;;5075283;28;20488;-86
2022/12/02 09:18:02;;;;;;;31.17;19.42;;;;;;;;;;5092822;28;20131;-86
2022/12/02 09:20:29;;;;;;;38.47;21.83;;;;;;;;;;5093047;28;20048;-86
2022/12/02 09:22:57;;;;;;;25.75;16.60;;;;;;;;;;5092902;28;20048;-86
2022/12/02 09:25:24;;;;;;;34.25;19.88;;;;;;;;;;5075213;28;20163;-86
2022/12/02 09:27:51;;;;;;;28.90;17.02;;;;;;;;;;5095180;28;20044;-87
2022/12/02 09:30:18;;;;;;;54.40;27.15;;;;;;;;;;5097051;28;20412;-87
2022/12/02 09:32:46;;;;;;;29.88;16.25;;;;;;;;;;5079178;28;20050;-88
2022/12/02 09:35:13;;;;;;;26.45;16.83;;;;;;;;;;5096880;28;20059;-88
2022/12/02 09:37:40;;;;;;;56.88;24.05;;;;;;;;;;5079284;28;20062;-87
2022/12/02 09:40:09;;;;;;;50.22;21.13;;;;;;;;;;5078926;28;20416;-88
2022/12/02 09:42:36;;;;;;;38.25;19.75;;;;;;;;;;5097084;28;20051;-88
2022/12/02 09:45:03;;;;;;;24.45;15.07;;;;;;;;;;5079676;28;20051;-89
2022/12/02 09:47:31;;;;;;;22.17;14.43;;;;;;;;;;5080294;28;20503;-89
2022/12/02 09:49:59;;;;;;;19.52;13.32;;;;;;;;;;5113214;28;20028;-89
2022/12/02 09:52:28;;;;;;;21.77;14.73;;;;;;;;;;5081464;28;20054;-89
2022/12/02 09:54:56;;;;;;;47.83;23.60;;;;;;;;;;5078969;28;20052;-88
2022/12/02 09:57:31;;;;;;;40.60;21.50;;;;;;;;;;5097002;28;20415;-88
2022/12/02 10:00:13;;;;;;;45.13;22.33;;;;;;;;;;5080508;28;20493;-89
2022/12/02 10:02:43;;;;;;;36.58;18.15;;;;;;;;;;5096755;28;20425;-89
2022/12/02 10:05:30;;;;;;;25.30;14.82;;;;;;;;;;5079427;28;20040;-88
2022/12/02 10:07:58;;;;;;;28.90;16.40;;;;;;;;;;5078667;28;20503;-88
2022/12/02 10:10:39;;;;;;;57.20;28.23;;;;;;;;;;5078795;28;20048;-87
2022/12/02 10:13:10;;;;;;;54.20;28.25;;;;;;;;;;5078800;28;20462;-87
2022/12/02 10:15:37;;;;;;;26.67;16.08;;;;;;;;;;5078751;28;20080;-87
2022/12/02 10:18:13;;;;;;;22.30;15.32;;;;;;;;;;5096498;28;20150;-87
2022/12/02 10:20:41;;;;;;;20.88;15.40;;;;;;;;;;5078218;28;20107;-87
2022/12/02 10:23:16;;;;;;;22.58;14.27;;;;;;;;;;5095919;28;20040;-86
2022/12/02 10:26:09;;;;;;;23.58;15.07;;;;;;;;;;5078630;28;20044;-87
2022/12/02 10:28:37;;;;;;;20.50;14.05;;;;;;;;;;5078502;28;20052;-88
2022/12/02 10:31:09;;;;;;;19.40;14.48;;;;;;;;;;5078184;28;20040;-86
2022/12/02 10:33:38;;;;;;;22.20;15.93;;;;;;;;;;5078299;28;20048;-86
2022/12/02 10:36:06;;;;;;;24.55;15.73;;;;;;;;;;5078245;28;20435;-87
2022/12/02 10:38:40;;;;;;;22.98;15.80;;;;;;;;;;5076970;28;20048;-87
2022/12/02 10:41:18;;;;;;;24.65;15.45;;;;;;;;;;5078265;28;20404;-86
2022/12/02 10:43:51;;;;;;;23.38;16.08;;;;;;;;;;5094658;28;20052;-86
2022/12/02 10:46:22;;;;;;;20.15;14.60;;;;;;;;;;5076826;28;20059;-86
2022/12/02 10:48:49;;;;;;;25.52;16.75;;;;;;;;;;5077688;28;20066;-87
2022/12/02 10:51:17;;;;;;;26.35;17.38;;;;;;;;;;5077370;28;20048;-86
2022/12/02 10:53:48;;;;;;;30.60;19.35;;;;;;;;;;5095294;28;20052;-86
2022/12/02 10:56:19;;;;;;;27.92;17.27;;;;;;;;;;5077053;28;20055;-85
2022/12/02 10:58:49;;;;;;;23.70;15.80;;;;;;;;;;5077336;28;20044;-85
2022/12/02 11:01:19;;;;;;;22.15;15.68;;;;;;;;;;5079724;28;20514;-85
2022/12/02 11:03:47;;;;;;;25.08;15.40;;;;;;;;;;5096193;28;20443;-85
2022/12/02 11:06:15;;;;;;;28.05;16.27;;;;;;;;;;5096240;28;20054;-86
2022/12/02 11:08:43;;;;;;;23.20;16.77;;;;;;;;;;5077065;28;20050;-86
2022/12/02 11:11:14;;;;;;;23.35;16.05;;;;;;;;;;5076904;28;20439;-86
2022/12/02 11:13:55;;;;;;;24.35;16.92;;;;;;;;;;5077000;28;20472;-86
2022/12/02 11:16:29;;;;;;;23.55;16.83;;;;;;;;;;5076742;28;20055;-86
2022/12/02 11:19:22;;;;;;;26.90;17.55;;;;;;;;;;5076600;28;20048;-86
2022/12/02 11:21:49;;;;;;;25.87;16.80;;;;;;;;;;5076774;28;20044;-86
2022/12/02 11:24:23;;;;;;;25.17;16.25;;;;;;;;;;5077510;28;20124;-86
2022/12/02 11:27:10;;;;;;;25.88;15.77;;;;;;;;;;5077277;28;20052;-88
2022/12/02 11:30:05;;;;;;;24.73;16.77;;;;;;;;;;5079633;28;20048;-87
2022/12/02 11:32:36;;;;;;;27.45;17.45;;;;;;;;;;5077409;28;20403;-87
2022/12/02 11:35:04;;;;;;;26.17;17.00;;;;;;;;;;5077383;28;20048;-87
2022/12/02 11:37:48;;;;;;;26.25;16.45;;;;;;;;;;5079334;28;20052;-87
2022/12/02 11:40:18;;;;;;;31.90;18.35;;;;;;;;;;5077236;28;20040;-87
2022/12/02 11:42:48;;;;;;;54.33;26.60;;;;;;;;;;5077298;28;20052;-87
2022/12/02 11:45:15;;;;;;;61.83;29.63;;;;;;;;;;5094817;28;20048;-87
2022/12/02 11:47:43;;;;;;;51.08;26.05;;;;;;;;;;5076655;28;20048;-88
2022/12/02 11:50:10;;;;;;;52.53;27.35;;;;;;;;;;5094614;28;20444;-87
2022/12/02 11:52:39;;;;;;;45.97;22.77;;;;;;;;;;5077664;28;20052;-87
2022/12/02 11:55:30;;;;;;;35.10;20.77;;;;;;;;;;5076573;28;20207;-87
2022/12/02 11:57:58;;;;;;;30.33;18.23;;;;;;;;;;5067146;28;20047;-87
2022/12/02 12:00:25;;;;;;;47.92;27.73;;;;;;;;;;5077581;28;20407;-87
2022/12/02 12:03:05;;;;;;;32.45;20.20;;;;;;;;;;5078159;28;20051;-87
2022/12/02 12:05:33;;;;;;;36.25;22.45;;;;;;;;;;5079610;28;20048;-87
2022/12/02 12:08:02;;;;;;;34.83;24.02;;;;;;;;;;5097303;27;20075;-87
2022/12/02 12:10:38;;;;;;;28.15;17.75;;;;;;;;;;5117070;27;20053;-86
2022/12/02 12:13:16;;;;;;;28.27;18.27;;;;;;;;;;5116788;27;20043;-86
2022/12/02 12:15:57;;;;;;;30.63;17.63;;;;;;;;;;5128050;27;20023;-85
2022/12/02 12:18:37;;;;;;;25.50;16.42;;;;;;;;;;5123531;27;20126;-86
2022/12/02 12:21:04;;;;;;;26.40;16.30;;;;;;;;;;5136352;27;20115;-85
2022/12/02 12:23:36;;;;;;;27.75;16.65;;;;;;;;;;5117035;27;20051;-86
2022/12/02 12:26:04;;;;;;;27.02;17.08;;;;;;;;;;5116448;27;20504;-86
2022/12/02 12:28:35;;;;;;;29.30;18.10;;;;;;;;;;5099638;27;20058;-86
2022/12/02 12:31:04;;;;;;;29.15;17.30;;;;;;;;;;5134298;27;20054;-86
2022/12/02 12:33:31;;;;;;;26.85;17.50;;;;;;;;;;5116623;28;20043;-87
2022/12/02 12:36:00;;;;;;;31.42;18.52;;;;;;;;;;5116535;27;20047;-86
2022/12/02 12:38:28;;;;;;;32.25;18.48;;;;;;;;;;5116703;28;20114;-87
2022/12/02 12:40:57;;;;;;;32.65;19.23;;;;;;;;;;5116875;28;20479;-87
2022/12/02 12:43:24;;;;;;;38.83;24.90;;;;;;;;;;5116823;28;20047;-87
2022/12/02 12:45:51;;;;;;;27.73;16.92;;;;;;;;;;5116497;28;20057;-87
2022/12/02 12:48:19;;;;;;;38.17;22.15;;;;;;;;;;5116617;28;20150;-88
2022/12/02 12:50:46;;;;;;;54.08;31.55;;;;;;;;;;5116696;28;20051;-89
2022/12/02 12:53:14;;;;;;;43.85;24.67;;;;;;;;;;5116699;28;20057;-88
2022/12/02 12:55:41;;;;;;;37.35;22.15;;;;;;;;;;5117269;28;20043;-88
2022/12/02 12:58:08;;;;;;;45.40;26.63;;;;;;;;;;5116305;28;20055;-88
2022/12/02 13:00:35;;;;;;;266.70;115.78;;;;;;;;;;5115455;28;20111;-88
2022/12/02 13:03:03;;;;;;;123.60;57.83;;;;;;;;;;5118238;27;20114;-88
2022/12/02 13:05:30;;;;;;;67.78;34.25;;;;;;;;;;5119741;27;20050;-89
2022/12/02 13:07:57;;;;;;;115.90;48.40;;;;;;;;;;5121400;27;20057;-87
2022/12/02 13:10:25;;;;;;;150.23;54.55;;;;;;;;;;5121221;27;20073;-87
2022/12/02 13:12:52;;;;;;;86.63;36.60;;;;;;;;;;5119611;27;20051;-87
2022/12/02 13:15:20;;;;;;;62.03;31.15;;;;;;;;;;5119697;27;20054;-88
2022/12/02 13:17:47;;;;;;;53.65;26.83;;;;;;;;;;5119560;27;20051;-87
2022/12/02 13:20:15;;;;;;;44.80;24.70;;;;;;;;;;5120001;27;20051;-87
2022/12/02 13:22:43;;;;;;;90.15;55.63;;;;;;;;;;5120216;27;20043;-88
2022/12/02 13:25:11;;;;;;;39.13;23.60;;;;;;;;;;5120625;27;20043;-87
2022/12/02 13:27:38;;;;;;;36.78;20.20;;;;;;;;;;5123298;27;20054;-89
2022/12/02 13:30:11;;;;;;;37.00;21.30;;;;;;;;;;5140641;27;20047;-89
2022/12/02 13:32:38;;;;;;;36.53;21.92;;;;;;;;;;5128541;27;20520;-88
2022/12/02 13:35:06;;;;;;;37.55;21.58;;;;;;;;;;5120166;27;20065;-88
2022/12/02 13:37:33;;;;;;;42.78;22.75;;;;;;;;;;5120109;27;20051;-88
2022/12/02 13:40:02;;;;;;;45.45;22.63;;;;;;;;;;5119446;27;20039;-88
2022/12/02 13:42:29;;;;;;;41.20;22.88;;;;;;;;;;5119381;27;20051;-88
2022/12/02 13:44:56;;;;;;;50.42;22.80;;;;;;;;;;5119460;27;20474;-89
2022/12/02 13:47:23;;;;;;;41.42;24.63;;;;;;;;;;5119446;27;20516;-88
2022/12/02 13:49:51;;;;;;;54.40;27.90;;;;;;;;;;5119877;27;20130;-90
2022/12/02 13:52:18;;;;;;;57.50;30.45;;;;;;;;;;5120440;27;20455;-89
2022/12/02 13:54:46;;;;;;;46.58;26.20;;;;;;;;;;5119262;27;20043;-89
2022/12/02 13:57:13;;;;;;;51.08;28.45;;;;;;;;;;5119266;27;20067;-88
2022/12/02 13:59:40;;;;;;;48.92;27.67;;;;;;;;;;5119701;27;20050;-89
2022/12/02 14:02:09;;;;;;;51.42;28.40;;;;;;;;;;5119221;27;20054;-88
2022/12/02 14:04:36;;;;;;;48.17;27.75;;;;;;;;;;5120378;27;20070;-90
2022/12/02 14:07:04;;;;;;;49.20;26.15;;;;;;;;;;5120261;27;20543;-89
2022/12/02 14:09:31;;;;;;;42.72;24.35;;;;;;;;;;5120441;27;20043;-89
2022/12/02 14:11:59;;;;;;;50.67;25.92;;;;;;;;;;5119725;27;20159;-90
2022/12/02 14:14:26;;;;;;;48.38;25.20;;;;;;;;;;5119691;27;20043;-90
2022/12/02 14:16:54;;;;;;;47.03;25.70;;;;;;;;;;5120134;27;20562;-89
2022/12/02 14:19:21;;;;;;;46.85;24.40;;;;;;;;;;5120343;27;20053;-90
2022/12/02 14:21:48;;;;;;;43.35;23.27;;;;;;;;;;5120294;27;20244;-90
2022/12/02 14:24:15;;;;;;;45.30;25.30;;;;;;;;;;5119935;27;20410;-90
2022/12/02 14:26:43;;;;;;;43.90;25.05;;;;;;;;;;5119947;27;20074;-90
2022/12/02 14:29:10;;;;;;;42.38;24.10;;;;;;;;;;5120029;27;20430;-90
2022/12/02 14:31:38;;;;;;;48.10;25.25;;;;;;;;;;5121564;27;20134;-90
2022/12/02 14:34:06;;;;;;;47.13;24.52;;;;;;;;;;5121638;27;20067;-90